Time;durP1;ratioP1;P1;durP2;ratioP2;P2;SDS_P1;SDS_P2;PMS_P1;PMS_P2;Temp;Humidity;BMP_temperature;BMP_pressure;BME280_temperature;BME280_humidity;BME280_pressure;Samples;Min_cycle;Max_cycle;Signal;HPM_P1;HPM_P2
2023/01/13 00:00:09;;;;;;;;;2.67;1.67;;;;;13.64;75.81;100547.00;2103208;28;46553;-64
2023/01/13 00:01:12;;;;;;;;;2.00;0.75;;;;;13.62;76.33;100562.19;2105205;27;46671;-64
2023/01/13 00:02:13;;;;;;;;;0.00;0.00;;;;;13.61;76.35;100565.78;2101093;28;46706;-63
2023/01/13 00:03:13;;;;;;;;;0.00;0.00;;;;;13.60;76.45;100558.72;2105224;27;46824;-64
2023/01/13 00:04:13;;;;;;;;;1.00;1.00;;;;;13.61;76.19;100555.97;2105678;28;46347;-63
2023/01/13 00:05:14;;;;;;;;;1.00;1.00;;;;;13.60;76.36;100538.25;2104978;28;46686;-63
2023/01/13 00:06:18;;;;;;;;;0.00;0.00;;;;;13.61;76.06;100553.31;2105564;28;45815;-64
2023/01/13 00:07:18;;;;;;;;;1.50;0.00;;;;;13.59;75.84;100549.81;2103820;28;46563;-63
2023/01/13 00:08:18;;;;;;;;;0.00;0.00;;;;;13.59;76.01;100543.59;2104895;28;45956;-63
2023/01/13 00:09:19;;;;;;;;;0.00;0.00;;;;;13.58;76.04;100555.19;2102424;28;46445;-64
2023/01/13 00:10:19;;;;;;;;;2.00;1.00;;;;;13.58;75.68;100557.88;2098141;28;46599;-64
2023/01/13 00:11:20;;;;;;;;;0.00;0.00;;;;;13.53;75.76;100561.59;2098765;28;46606;-65
2023/01/13 00:12:20;;;;;;;;;0.00;0.00;;;;;13.50;75.83;100526.16;2105263;28;46246;-64
2023/01/13 00:13:25;;;;;;;;;0.00;0.00;;;;;13.46;75.24;100546.72;2103392;28;45443;-64
2023/01/13 00:14:28;;;;;;;;;0.00;0.00;;;;;13.40;75.20;100546.97;2098959;28;45612;-65
2023/01/13 00:15:28;;;;;;;;;0.00;0.00;;;;;13.36;75.36;100537.34;2105294;28;46700;-65
2023/01/13 00:16:29;;;;;;;;;0.00;0.00;;;;;13.33;75.23;100534.75;2105519;28;45979;-65
2023/01/13 00:17:29;;;;;;;;;0.00;0.00;;;;;13.31;75.54;100530.41;2103598;28;47140;-64
2023/01/13 00:18:30;;;;;;;;;0.00;0.00;;;;;13.31;75.62;100541.06;2105107;27;47026;-64
2023/01/13 00:19:30;;;;;;;;;0.00;0.00;;;;;13.31;75.38;100533.09;2109257;27;46641;-64
2023/01/13 00:20:30;;;;;;;;;0.00;0.00;;;;;13.27;75.38;100529.66;2096111;28;46485;-65
2023/01/13 00:21:31;;;;;;;;;0.00;0.00;;;;;13.25;75.65;100527.06;2088017;28;46704;-65
2023/01/13 00:22:33;;;;;;;;;0.00;0.00;;;;;13.24;75.51;100528.00;2089094;28;46720;-64
2023/01/13 00:23:34;;;;;;;;;0.00;0.00;;;;;13.23;75.50;100525.38;2105163;28;46983;-64
2023/01/13 00:24:35;;;;;;;;;1.00;0.50;;;;;13.23;75.17;100512.94;2103021;28;46925;-65
2023/01/13 00:25:35;;;;;;;;;0.00;0.00;;;;;13.22;75.07;100521.84;2105114;28;46938;-64
2023/01/13 00:26:35;;;;;;;;;0.00;0.00;;;;;13.19;75.06;100524.59;2097046;28;46355;-65
2023/01/13 00:27:36;;;;;;;;;0.00;0.00;;;;;13.17;74.82;100521.09;2099906;28;45459;-64
2023/01/13 00:28:37;;;;;;;;;0.00;0.00;;;;;13.16;74.97;100531.81;2096344;28;45967;-65
2023/01/13 00:29:37;;;;;;;;;0.00;0.00;;;;;13.15;74.86;100524.75;2094767;28;46291;-65
2023/01/13 00:30:37;;;;;;;;;0.00;0.00;;;;;13.13;74.99;100535.44;2096910;28;45563;-64
2023/01/13 00:31:38;;;;;;;;;0.00;0.00;;;;;13.12;74.94;100528.38;2096499;28;46255;-64
2023/01/13 00:32:38;;;;;;;;;1.00;0.00;;;;;13.12;74.76;100530.19;2103951;27;46552;-63
2023/01/13 00:33:38;;;;;;;;;0.00;0.00;;;;;13.11;74.65;100529.31;2103803;28;46173;-64
2023/01/13 00:34:39;;;;;;;;;0.00;0.00;;;;;13.12;74.82;100530.19;2095916;28;46797;-63
2023/01/13 00:35:39;;;;;;;;;0.00;0.00;;;;;13.12;74.80;100524.84;2102963;28;46700;-64
2023/01/13 00:36:40;;;;;;;;;0.00;0.00;;;;;13.13;74.69;100530.13;2101114;28;46597;-65
2023/01/13 00:37:40;;;;;;;;;0.00;0.00;;;;;13.13;74.62;100529.25;2102417;28;46799;-64
2023/01/13 00:38:41;;;;;;;;;0.00;0.00;;;;;13.14;74.73;100526.53;2103728;28;46579;-63
2023/01/13 00:39:42;;;;;;;;;1.00;0.00;;;;;13.14;74.45;100523.88;2097711;28;46443;-64
2023/01/13 00:40:42;;;;;;;;;0.00;0.00;;;;;13.12;74.27;100528.38;2099954;28;46920;-65
2023/01/13 00:44:20;;;;;;;;;0.50;0.00;;;;;13.13;74.48;100529.25;2097154;28;46319;-65
2023/01/13 00:45:20;;;;;;;;;0.00;0.00;;;;;13.14;74.21;100529.19;2104344;28;46451;-63
2023/01/13 00:46:21;;;;;;;;;0.00;0.00;;;;;13.12;73.88;100530.19;2105177;28;47420;-63
2023/01/13 00:47:24;;;;;;;;;0.00;0.00;;;;;13.10;73.93;100535.56;2102931;28;45162;-63
2023/01/13 00:48:26;;;;;;;;;0.00;0.00;;;;;13.08;74.01;100525.84;2096764;28;46447;-64
2023/01/13 00:49:26;;;;;;;;;0.00;0.00;;;;;13.06;73.83;100531.25;2103206;28;46705;-64
2023/01/13 00:50:29;;;;;;;;;0.00;0.00;;;;;13.07;73.85;100529.44;2102562;28;46631;-65
2023/01/13 00:51:29;;;;;;;;;0.00;0.00;;;;;13.05;73.81;100521.50;2096783;28;46773;-64
2023/01/13 00:52:31;;;;;;;;;1.00;0.00;;;;;13.05;73.71;100518.84;2101586;28;46610;-63
2023/01/13 00:53:34;;;;;;;;;0.00;0.00;;;;;13.03;73.58;100523.38;2102948;28;46617;-63
2023/01/13 00:54:35;;;;;;;;;0.00;0.00;;;;;13.01;73.84;100509.25;2105533;28;46043;-65
2023/01/13 00:55:35;;;;;;;;;0.00;0.00;;;;;13.01;73.65;100509.25;2104038;28;46814;-66
2023/01/13 00:56:35;;;;;;;;;0.00;0.00;;;;;13.01;73.55;100505.69;2102888;28;47589;-63
2023/01/13 00:57:36;;;;;;;;;0.00;0.00;;;;;13.02;73.56;100504.78;2099846;28;46794;-63
2023/01/13 00:58:36;;;;;;;;;0.00;0.00;;;;;13.01;73.53;100501.25;2099573;28;46719;-64
2023/01/13 00:59:36;;;;;;;;;0.00;0.00;;;;;13.02;73.28;100507.44;2102004;28;46125;-64
2023/01/13 01:00:37;;;;;;;;;0.00;0.00;;;;;13.02;73.56;100508.31;2104536;28;46362;-65
2023/01/13 01:01:37;;;;;;;;;0.00;0.00;;;;;13.02;73.41;100502.13;2097019;28;46849;-64
2023/01/13 01:02:38;;;;;;;;;0.00;0.00;;;;;13.00;73.14;100499.50;2099510;28;46316;-64
2023/01/13 01:03:38;;;;;;;;;0.00;0.00;;;;;12.99;73.17;100499.56;2100576;28;46640;-64
2023/01/13 01:04:39;;;;;;;;;0.00;0.00;;;;;12.98;73.02;100505.81;2096157;28;45005;-65
2023/01/13 01:05:39;;;;;;;;;0.00;0.00;;;;;12.96;73.02;100508.53;2095720;28;46875;-64
2023/01/13 01:06:39;;;;;;;;;0.00;0.00;;;;;12.96;73.08;100516.53;2105159;28;46957;-64
2023/01/13 01:07:39;;;;;;;;;0.00;0.00;;;;;12.96;72.90;100516.53;2095572;28;45932;-64
2023/01/13 01:08:40;;;;;;;;;0.00;0.00;;;;;12.95;72.81;100512.09;2095503;28;46778;-64
2023/01/13 01:09:41;;;;;;;;;0.00;0.00;;;;;12.95;72.78;100515.63;2104739;28;46424;-63
2023/01/13 01:10:41;;;;;;;;;0.00;0.00;;;;;12.97;72.95;100515.59;2092332;28;46751;-64
2023/01/13 01:11:42;;;;;;;;;0.00;0.00;;;;;12.98;72.77;100521.81;2087382;28;46096;-64
2023/01/13 01:12:42;;;;;;;;;0.00;0.00;;;;;12.98;72.75;100514.69;2094969;28;46733;-63
2023/01/13 01:13:44;;;;;;;;;0.00;0.00;;;;;12.98;72.50;100514.69;2104368;28;46652;-64
2023/01/13 01:14:44;;;;;;;;;0.00;0.00;;;;;12.97;72.52;100515.59;2102473;28;46821;-63
2023/01/13 01:15:46;;;;;;;;;0.00;0.00;;;;;13.00;72.49;100528.81;2094840;28;46279;-63
2023/01/13 01:16:46;;;;;;;;;0.75;0.50;;;;;12.99;72.89;100524.41;2094603;28;45937;-65
2023/01/13 01:17:47;;;;;;;;;0.00;0.00;;;;;13.00;72.74;100525.28;2095644;28;45929;-64
2023/01/13 01:18:49;;;;;;;;;0.67;0.67;;;;;13.00;72.42;100518.16;2094220;28;46371;-63
2023/01/13 01:19:49;;;;;;;;;0.50;0.50;;;;;13.01;72.63;100532.34;2095855;28;47814;-64
2023/01/13 01:20:50;;;;;;;;;0.00;0.00;;;;;13.02;72.48;100526.97;2094860;28;46863;-64
2023/01/13 01:21:50;;;;;;;;;0.00;0.00;;;;;13.00;72.59;100533.28;2095472;28;46562;-63
2023/01/13 01:22:51;;;;;;;;;0.00;0.00;;;;;13.01;72.42;100527.00;2077926;28;45301;-64
2023/01/13 01:23:52;;;;;;;;;0.00;0.00;;;;;13.02;72.58;100536.75;2079004;28;46478;-63
2023/01/13 01:24:52;;;;;;;;;0.00;0.00;;;;;13.02;72.53;100536.75;2086678;28;46496;-63
2023/01/13 01:25:52;;;;;;;;;0.00;0.00;;;;;13.01;72.22;100522.56;2087014;28;46227;-63
2023/01/13 01:26:53;;;;;;;;;1.00;1.00;;;;;13.00;72.41;100530.59;2084051;28;46664;-63
2023/01/13 01:27:53;;;;;;;;;0.00;0.00;;;;;12.99;72.53;100518.22;2086355;28;47626;-63
2023/01/13 01:28:54;;;;;;;;;0.00;0.00;;;;;12.99;72.49;100524.41;2094299;28;46368;-63
2023/01/13 01:29:55;;;;;;;;;0.00;0.00;;;;;12.98;72.42;100512.03;2095136;28;46048;-63
2023/01/13 01:30:57;;;;;;;;;0.00;0.00;;;;;12.98;72.28;100522.66;2085517;28;45785;-64
2023/01/13 01:31:58;;;;;;;;;0.00;0.00;;;;;12.98;72.23;100509.34;2089902;28;46076;-62
2023/01/13 01:32:58;;;;;;;;;0.33;0.33;;;;;12.96;72.43;100512.06;2095556;28;46523;-64
2023/01/13 01:34:00;;;;;;;;;0.00;0.00;;;;;12.96;72.24;100512.06;2094972;28;45156;-64
2023/01/13 01:35:00;;;;;;;;;0.00;0.00;;;;;12.98;72.07;100508.47;2095144;28;46700;-64
2023/01/13 01:36:01;;;;;;;;;0.00;0.00;;;;;12.98;71.99;100511.16;2084901;28;46559;-63
2023/01/13 01:37:02;;;;;;;;;0.00;0.00;;;;;12.98;71.83;100512.03;2087065;28;46227;-64
2023/01/13 01:38:02;;;;;;;;;0.00;0.00;;;;;12.98;72.00;100517.34;2093398;28;47468;-64
2023/01/13 01:39:03;;;;;;;;;0.00;0.00;;;;;12.96;71.82;100520.06;2095729;28;46306;-63
2023/01/13 01:40:04;;;;;;;;;0.00;0.00;;;;;12.96;71.46;100516.53;2086523;28;45782;-63
2023/01/13 01:41:05;;;;;;;;;0.33;0.33;;;;;12.94;71.49;100521.88;2086725;28;46503;-64
2023/01/13 01:43:58;;;;;;;;;0.00;0.00;;;;;12.94;71.09;100513.03;2093332;28;46596;-64
2023/01/13 01:45:01;;;;;;;;;1.00;1.00;;;;;12.92;71.00;100518.41;2093270;28;46601;-63
2023/01/13 01:46:02;;;;;;;;;0.00;0.00;;;;;12.91;70.69;100522.00;2094500;28;47948;-65
2023/01/13 01:47:04;;;;;;;;;0.00;0.00;;;;;12.91;70.74;100515.81;2087744;28;46100;-63
2023/01/13 01:48:06;;;;;;;;;0.00;0.00;;;;;12.89;70.56;100515.84;2101293;28;46034;-62
2023/01/13 01:49:12;;;;;;;;;2.00;0.00;;;;;12.87;70.64;100511.50;2097318;28;46251;-63
2023/01/13 01:50:14;;;;;;;;;0.00;0.00;;;;;12.86;70.16;100523.09;2103830;27;46379;-63
2023/01/13 01:51:14;;;;;;;;;0.00;0.00;;;;;12.86;70.16;100518.63;2102294;28;47019;-64
2023/01/13 01:52:35;;;;;;;;;0.67;0.00;;;;;12.87;70.54;100507.06;2104963;27;45703;-64
2023/01/13 01:53:35;;;;;;;;;0.00;0.00;;;;;12.87;70.43;100507.06;2095190;28;46486;-64
2023/01/13 01:55:06;;;;;;;;;0.00;0.00;;;;;12.87;70.17;100511.50;2095874;28;46591;-64
2023/01/13 01:56:08;;;;;;;;;1.00;0.00;;;;;12.85;70.02;100508.91;2068176;28;46624;-63
2023/01/13 01:57:14;;;;;;;;;0.00;0.00;;;;;12.82;70.00;100518.78;2070952;28;45058;-63
2023/01/13 01:58:20;;;;;;;;;0.50;0.50;;;;;12.79;70.05;100522.41;2073771;28;46050;-63
2023/01/13 01:59:21;;;;;;;;;0.00;0.00;;;;;12.78;69.94;100515.34;2077813;28;46380;-62
2023/01/13 02:00:22;;;;;;;;;0.33;0.33;;;;;12.77;70.04;100516.28;2074617;28;46054;-63
2023/01/13 02:01:22;;;;;;;;;1.00;1.00;;;;;12.75;69.20;100526.13;2072110;28;47072;-64
2023/01/13 02:02:23;;;;;;;;;0.33;0.33;;;;;12.73;69.53;100519.09;2078529;28;46056;-64
2023/01/13 02:03:24;;;;;;;;;1.67;0.00;;;;;12.71;69.57;100520.94;2077294;28;46458;-64
2023/01/13 02:04:32;;;;;;;;;0.00;0.00;;;;;12.69;69.81;100526.31;2078620;28;46701;-64
2023/01/13 02:05:33;;;;;;;;;0.00;0.00;;;;;12.66;69.64;100524.63;2078772;28;46678;-64
2023/01/13 02:06:33;;;;;;;;;1.00;1.00;;;;;12.63;69.49;100526.53;2074641;28;46729;-64
2023/01/13 02:07:37;;;;;;;;;1.00;0.00;;;;;12.61;69.57;100529.25;2063888;28;45233;-64
2023/01/13 02:08:39;;;;;;;;;0.00;0.00;;;;;12.60;69.64;100526.63;2071576;28;46908;-64
2023/01/13 02:09:39;;;;;;;;;0.00;0.00;;;;;12.60;69.63;100530.16;2080980;28;46904;-63
2023/01/13 02:10:41;;;;;;;;;0.00;0.00;;;;;12.59;69.86;100533.75;2077703;28;46461;-64
2023/01/13 02:13:07;;;;;;;;;0.75;0.75;;;;;12.56;69.60;100536.47;2078507;28;46405;-65
2023/01/13 02:14:08;;;;;;;;;2.00;0.00;;;;;12.55;69.62;100537.41;2079909;28;46626;-64
2023/01/13 02:15:11;;;;;;;;;0.00;0.00;;;;;12.55;69.71;100539.19;2079076;28;46245;-64
2023/01/13 02:16:21;;;;;;;;;1.00;1.00;;;;;12.54;69.85;100548.97;2080003;28;46446;-64
2023/01/13 02:17:28;;;;;;;;;2.00;1.00;;;;;12.54;69.73;100542.78;2071190;28;47102;-64
2023/01/13 02:18:40;;;;;;;;;0.00;0.00;;;;;12.53;69.73;100544.56;2078852;28;46158;-64
2023/01/13 02:20:06;;;;;;;;;1.00;0.00;;;;;12.52;69.89;100552.63;2077758;28;45680;-65
2023/01/13 02:21:25;;;;;;;;;0.00;0.00;;;;;12.49;69.57;100545.59;2078656;28;47036;-65
2023/01/13 02:22:37;;;;;;;;;0.00;0.00;;;;;12.48;69.46;100540.34;2078199;28;46504;-65
2023/01/13 02:25:49;;;;;;;;;0.50;0.50;;;;;12.46;69.88;100535.06;2071694;28;46454;-65
2023/01/13 02:27:02;;;;;;;;;0.00;0.00;;;;;12.45;69.92;100533.31;2079009;28;46878;-65
2023/01/13 02:28:31;;;;;;;;;2.00;0.00;;;;;12.44;69.89;100536.00;2072064;28;46901;-64
2023/01/13 02:32:58;;;;;;;;;0.50;0.50;;;;;12.38;69.92;100531.78;2073405;28;46673;-65
2023/01/13 02:34:08;;;;;;;;;0.00;0.00;;;;;12.35;69.84;100527.41;2095409;28;46955;-64
2023/01/13 02:35:22;;;;;;;;;0.75;0.75;;;;;12.35;69.92;100529.22;2104377;28;46701;-64
2023/01/13 02:36:22;;;;;;;;;0.00;0.00;;;;;12.33;70.23;100537.25;2098861;28;46663;-65
2023/01/13 02:37:28;;;;;;;;;0.00;0.00;;;;;12.34;70.04;100533.66;2092777;28;46517;-64
2023/01/13 02:38:36;;;;;;;;;0.75;0.75;;;;;12.35;69.82;100545.19;2103989;28;46357;-64
2023/01/13 02:40:06;;;;;;;;;0.00;0.00;;;;;12.32;69.79;100539.94;2105176;28;46894;-63
2023/01/13 02:44:46;;;;;;;;;1.00;1.00;;;;;12.25;70.01;100533.94;2084924;28;46995;-63
2023/01/13 02:45:58;;;;;;;;;0.00;0.00;;;;;12.23;69.92;100540.25;2087934;28;46151;-63
2023/01/13 02:47:09;;;;;;;;;0.00;0.00;;;;;12.22;69.99;100534.06;2087863;28;46992;-63
2023/01/13 02:48:12;;;;;;;;;2.00;0.00;;;;;12.22;69.92;100534.06;2088081;28;45673;-65
2023/01/13 02:49:22;;;;;;;;;0.50;0.00;;;;;12.20;70.07;100538.56;2087578;28;47059;-64
2023/01/13 02:50:31;;;;;;;;;1.00;1.00;;;;;12.20;70.04;100543.88;2088188;28;46405;-63
2023/01/13 02:51:32;;;;;;;;;1.00;1.00;;;;;12.19;70.01;100543.91;2086733;28;46667;-64
2023/01/13 02:52:41;;;;;;;;;1.50;0.75;;;;;12.19;70.05;100546.56;2087916;28;46373;-65
2023/01/13 02:54:02;;;;;;;;;0.00;0.00;;;;;12.18;70.26;100551.00;2088007;28;46405;-65
2023/01/13 02:55:09;;;;;;;;;0.00;0.00;;;;;12.17;70.02;100548.41;2088182;28;46778;-64
2023/01/13 02:56:12;;;;;;;;;0.50;0.50;;;;;12.17;70.18;100553.72;2086501;28;46342;-63
2023/01/13 02:57:16;;;;;;;;;1.00;1.00;;;;;12.17;70.30;100559.91;2086245;28;46775;-64
2023/01/13 02:58:22;;;;;;;;;1.00;0.00;;;;;12.18;70.42;100552.78;2091368;28;46297;-64
2023/01/13 02:59:26;;;;;;;;;1.00;1.00;;;;;12.19;70.42;100552.75;2086543;28;46523;-65
2023/01/13 03:00:28;;;;;;;;;1.00;1.00;;;;;12.20;70.16;100558.97;2079428;28;46539;-64
2023/01/13 03:01:28;;;;;;;;;1.25;0.50;;;;;12.19;70.18;100552.75;2088094;28;45329;-64
2023/01/13 03:02:29;;;;;;;;;0.00;0.00;;;;;12.19;70.42;100559.84;2087516;28;46351;-65
2023/01/13 03:03:29;;;;;;;;;0.67;0.67;;;;;12.20;70.30;100556.31;2088130;28;46832;-65
2023/01/13 03:04:55;;;;;;;;;0.00;0.00;;;;;12.20;70.27;100564.28;2084022;28;46472;-65
2023/01/13 03:06:37;;;;;;;;;1.00;1.00;;;;;12.22;70.21;100570.44;2088162;28;46575;-64
2023/01/13 03:08:08;;;;;;;;;0.00;0.00;;;;;12.21;70.24;100569.56;2050439;28;46385;-65
2023/01/13 03:09:21;;;;;;;;;1.00;0.00;;;;;12.21;70.18;100560.72;2055107;28;47120;-63
2023/01/13 03:10:33;;;;;;;;;0.25;0.25;;;;;12.22;70.40;100570.44;2059101;28;46407;-63
2023/01/13 03:11:45;;;;;;;;;1.00;1.00;;;;;12.22;69.96;100568.63;2054735;28;46621;-63
2023/01/13 03:13:25;;;;;;;;;1.25;0.75;;;;;12.21;70.01;100564.25;2052699;28;45840;-64
2023/01/13 03:14:53;;;;;;;;;0.50;0.50;;;;;12.21;70.06;100582.88;2053565;28;46951;-63
2023/01/13 03:15:58;;;;;;;;;0.25;0.00;;;;;12.23;70.10;100574.81;2054480;28;46849;-65
2023/01/13 03:17:05;;;;;;;;;0.00;0.00;;;;;12.23;69.93;100575.69;2055116;28;46782;-64
2023/01/13 03:18:27;;;;;;;;;0.00;0.00;;;;;12.22;69.92;100584.59;2062808;28;46973;-64
2023/01/13 03:19:52;;;;;;;;;1.50;0.00;;;;;12.23;69.89;100580.16;2054345;28;46891;-63
2023/01/13 03:21:28;;;;;;;;;1.00;1.00;;;;;12.22;70.03;100583.72;2055694;28;46630;-63
2023/01/13 03:22:37;;;;;;;;;0.00;0.00;;;;;12.23;69.96;100583.69;2055610;28;46426;-64
2023/01/13 03:23:51;;;;;;;;;0.50;0.50;;;;;12.22;69.84;100581.94;2062182;28;46974;-62
2023/01/13 03:24:59;;;;;;;;;0.00;0.00;;;;;12.22;69.85;100581.06;2063512;28;46694;-64
2023/01/13 03:26:24;;;;;;;;;0.75;0.75;;;;;12.22;69.92;100584.59;2061615;28;46912;-65
2023/01/13 03:27:39;;;;;;;;;2.00;0.00;;;;;12.21;69.85;100582.00;2062978;28;46698;-65
2023/01/13 03:28:48;;;;;;;;;0.75;0.75;;;;;12.22;69.77;100573.09;2063384;28;46418;-64
2023/01/13 03:29:52;;;;;;;;;1.00;0.50;;;;;12.21;69.76;100574.00;2062065;28;45776;-63
2023/01/13 03:31:00;;;;;;;;;0.00;0.00;;;;;12.21;69.68;100571.34;2061906;28;46521;-64
2023/01/13 03:32:14;;;;;;;;;1.00;0.75;;;;;12.22;69.67;100570.44;2062518;28;46115;-64
2023/01/13 03:33:23;;;;;;;;;2.00;1.00;;;;;12.23;69.55;100574.81;2055212;28;45187;-63
2023/01/13 03:34:31;;;;;;;;;1.00;1.00;;;;;12.23;69.55;100573.03;2059503;28;46803;-63
2023/01/13 03:35:51;;;;;;;;;0.50;0.50;;;;;12.23;69.62;100580.16;2060066;28;46488;-64
2023/01/13 03:36:54;;;;;;;;;1.75;1.75;;;;;12.22;69.60;100571.31;2055274;28;46981;-62
2023/01/13 03:38:05;;;;;;;;;0.00;0.00;;;;;12.23;69.40;100572.16;2053268;28;46798;-63
2023/01/13 03:39:11;;;;;;;;;0.50;0.50;;;;;12.23;69.39;100577.50;2063129;28;47000;-63
2023/01/13 03:40:14;;;;;;;;;1.00;1.00;;;;;12.24;69.59;100576.56;2062824;28;47053;-64
2023/01/13 03:41:22;;;;;;;;;2.75;0.75;;;;;12.25;69.42;100584.50;2055167;28;46399;-63
2023/01/13 03:42:24;;;;;;;;;0.50;0.50;;;;;12.25;69.01;100575.66;2047366;28;46489;-62
2023/01/13 03:45:07;;;;;;;;;2.00;2.00;;;;;12.24;69.13;100577.44;2089991;28;46927;-62
2023/01/13 03:46:19;;;;;;;;;0.67;0.67;;;;;12.26;69.36;100582.72;2089620;28;46461;-64
2023/01/13 03:47:19;;;;;;;;;3.50;1.00;;;;;12.26;69.16;100585.38;2096802;28;47007;-62
2023/01/13 03:48:21;;;;;;;;;2.00;1.00;;;;;12.26;69.05;100578.25;2095733;28;46683;-63
2023/01/13 03:49:28;;;;;;;;;1.00;1.00;;;;;12.25;68.84;100576.53;2096889;28;46848;-63
2023/01/13 03:50:42;;;;;;;;;1.50;0.00;;;;;12.25;68.91;100579.19;2095260;28;46672;-63
2023/01/13 03:51:47;;;;;;;;;2.00;1.00;;;;;12.25;69.09;100586.28;2094526;28;47233;-63
2023/01/13 03:52:57;;;;;;;;;2.00;2.00;;;;;12.25;68.76;100580.97;2094791;28;46416;-63
2023/01/13 03:54:03;;;;;;;;;1.00;1.00;;;;;12.24;68.76;100576.56;2090289;28;46915;-65
2023/01/13 03:55:10;;;;;;;;;1.25;1.25;;;;;12.24;68.63;100580.09;2090868;28;46485;-63
2023/01/13 03:56:25;;;;;;;;;1.00;0.25;;;;;12.24;68.69;100576.56;2095744;28;46667;-63
2023/01/13 03:57:33;;;;;;;;;1.00;1.00;;;;;12.26;68.95;100580.91;2091209;28;47040;-63
2023/01/13 03:58:40;;;;;;;;;1.50;1.50;;;;;12.28;68.83;100583.53;2090841;28;46248;-64
2023/01/13 03:59:44;;;;;;;;;0.75;0.75;;;;;12.27;68.63;100579.13;2094608;28;46271;-64
2023/01/13 04:01:18;;;;;;;;;0.50;0.50;;;;;12.28;68.77;100579.06;2105613;27;47003;-63
2023/01/13 04:02:31;;;;;;;;;1.00;1.00;;;;;12.30;68.96;100574.56;2088904;28;46950;-64
2023/01/13 04:03:59;;;;;;;;;1.25;1.25;;;;;12.31;68.86;100575.44;2091614;28;47080;-64
2023/01/13 04:05:05;;;;;;;;;0.00;0.00;;;;;12.31;68.74;100572.78;2099373;28;46000;-65
2023/01/13 04:06:27;;;;;;;;;0.00;0.00;;;;;12.30;68.73;100574.56;2095843;28;47100;-63
2023/01/13 04:07:47;;;;;;;;;0.25;0.25;;;;;12.30;68.56;100576.38;2096729;28;46439;-62
2023/01/13 04:08:54;;;;;;;;;0.25;0.25;;;;;12.28;68.54;100579.06;2090739;28;46577;-63
2023/01/13 04:09:56;;;;;;;;;1.00;0.00;;;;;12.27;68.62;100585.31;2096701;28;46656;-63
2023/01/13 04:11:10;;;;;;;;;0.00;0.00;;;;;12.26;68.50;100566.75;2097101;28;45104;-63
2023/01/13 04:12:59;;;;;;;;;2.00;0.25;;;;;12.28;68.67;100575.53;2088334;28;46388;-63
2023/01/13 04:14:02;;;;;;;;;0.00;0.00;;;;;12.27;68.44;100589.78;2091626;28;46933;-63
2023/01/13 04:15:03;;;;;;;;;0.50;0.00;;;;;12.27;68.35;100584.44;2088612;28;46586;-64
2023/01/13 04:16:09;;;;;;;;;0.00;0.00;;;;;12.28;68.29;100588.84;2093292;28;47147;-64
2023/01/13 04:17:09;;;;;;;;;2.00;0.25;;;;;12.28;68.51;100586.19;2088625;28;47022;-64
2023/01/13 04:18:16;;;;;;;;;1.00;1.00;;;;;12.28;68.31;100589.72;2096249;28;45560;-63
2023/01/13 04:19:16;;;;;;;;;2.00;0.00;;;;;12.28;68.34;100588.84;2092866;28;46771;-64
2023/01/13 04:20:17;;;;;;;;;0.00;0.00;;;;;12.27;68.43;100589.78;2091741;28;46981;-64
2023/01/13 04:21:17;;;;;;;;;0.00;0.00;;;;;12.27;68.18;100592.44;2090463;28;46430;-64
2023/01/13 04:22:17;;;;;;;;;1.00;0.00;;;;;12.26;68.19;100596.88;2093759;28;46378;-64
2023/01/13 04:23:19;;;;;;;;;2.00;0.00;;;;;12.26;68.13;100598.69;2096761;28;46453;-64
2023/01/13 04:24:20;;;;;;;;;0.00;0.00;;;;;12.25;68.20;100589.81;2093651;28;46829;-64
2023/01/13 04:25:20;;;;;;;;;0.33;0.33;;;;;12.25;68.18;100597.81;2095089;28;46785;-64
2023/01/13 04:26:22;;;;;;;;;0.00;0.00;;;;;12.26;68.36;100596.00;2095591;28;46621;-66
2023/01/13 04:27:22;;;;;;;;;0.00;0.00;;;;;12.27;68.08;100603.06;2096485;28;45776;-62
2023/01/13 04:28:23;;;;;;;;;0.00;0.00;;;;;12.28;68.06;100596.84;2095684;28;46586;-63
2023/01/13 04:29:24;;;;;;;;;1.50;0.00;;;;;12.29;68.18;100603.91;2097243;28;45976;-63
2023/01/13 04:30:24;;;;;;;;;0.67;0.67;;;;;12.28;67.92;100592.38;2095770;28;46913;-64
2023/01/13 04:31:25;;;;;;;;;0.00;0.00;;;;;12.26;67.89;100602.22;2089380;28;46460;-64
2023/01/13 04:32:25;;;;;;;;;0.00;0.00;;;;;12.24;67.96;100609.38;2096504;28;45636;-64
2023/01/13 04:33:25;;;;;;;;;2.33;1.00;;;;;12.23;67.95;100606.75;2095410;28;46154;-64
2023/01/13 04:34:26;;;;;;;;;1.00;1.00;;;;;12.21;67.81;100603.28;2088418;28;46270;-63
2023/01/13 04:35:26;;;;;;;;;0.67;0.00;;;;;12.18;67.68;100601.56;2090215;28;46316;-63
2023/01/13 04:36:26;;;;;;;;;0.00;0.00;;;;;12.18;67.85;100616.66;2093790;28;46453;-64
2023/01/13 04:37:27;;;;;;;;;0.00;0.00;;;;;12.15;67.68;100604.31;2092658;28;46325;-64
2023/01/13 04:38:27;;;;;;;;;0.67;0.67;;;;;12.13;67.71;100603.50;2093658;28;46770;-64
2023/01/13 04:39:27;;;;;;;;;0.00;0.00;;;;;12.12;67.36;100614.19;2089105;28;46486;-63
2023/01/13 04:40:28;;;;;;;;;0.67;0.67;;;;;12.11;67.79;100625.75;2096617;28;46212;-63
2023/01/13 04:41:56;;;;;;;;;1.67;0.00;;;;;12.10;67.69;100624.88;2095643;28;46947;-63
2023/01/13 04:42:49;;;;;;;;;0.00;0.00;;;;;12.07;67.76;100628.50;2096312;28;47008;-63
2023/01/13 04:43:49;;;;;;;;;0.00;0.00;;;;;12.07;67.80;100627.63;2095617;28;46567;-63
2023/01/13 04:44:49;;;;;;;;;0.00;0.00;;;;;12.05;67.76;100618.78;2096088;28;46415;-63
2023/01/13 04:45:50;;;;;;;;;0.00;0.00;;;;;12.06;67.73;100631.19;2090190;28;46268;-64
2023/01/13 04:46:50;;;;;;;;;2.00;1.00;;;;;12.07;67.98;100630.28;2093280;28;46483;-63
2023/01/13 04:47:51;;;;;;;;;1.67;0.00;;;;;12.07;67.76;100628.50;2094389;28;46857;-63
2023/01/13 04:48:51;;;;;;;;;0.00;0.00;;;;;12.08;67.88;100630.25;2094832;28;46181;-63
2023/01/13 04:49:51;;;;;;;;;1.33;1.00;;;;;12.08;67.87;100632.03;2096612;28;46382;-64
2023/01/13 04:50:51;;;;;;;;;0.00;0.00;;;;;12.07;67.72;100635.59;2095760;28;46817;-64
2023/01/13 04:51:52;;;;;;;;;0.00;0.00;;;;;12.07;67.53;100624.97;2095516;28;44910;-64
2023/01/13 04:52:53;;;;;;;;;1.00;1.00;;;;;12.07;67.48;100627.63;2096012;28;46294;-64
2023/01/13 04:53:53;;;;;;;;;1.00;0.00;;;;;12.07;67.45;100630.28;2094674;28;45754;-64
2023/01/13 04:54:53;;;;;;;;;0.00;0.00;;;;;12.06;67.33;100629.38;2079903;28;46303;-64
2023/01/13 04:55:54;;;;;;;;;2.67;1.00;;;;;12.07;67.43;100628.50;2090799;28;47530;-63
2023/01/13 04:56:54;;;;;;;;;0.00;0.00;;;;;12.06;67.44;100623.19;2088733;28;46196;-64
2023/01/13 04:57:54;;;;;;;;;0.00;0.00;;;;;12.05;67.16;100624.97;2094591;28;45215;-64
2023/01/13 04:58:55;;;;;;;;;1.67;1.00;;;;;12.04;67.25;100630.34;2090512;28;46624;-63
2023/01/13 04:59:55;;;;;;;;;1.00;1.00;;;;;12.02;67.17;100627.75;2090432;28;45808;-64
2023/01/13 05:00:55;;;;;;;;;1.00;1.00;;;;;12.03;67.05;100628.63;2092739;28;48042;-64
2023/01/13 05:01:56;;;;;;;;;1.33;0.33;;;;;12.02;66.90;100629.53;2094762;28;46913;-64
2023/01/13 05:02:56;;;;;;;;;0.33;0.33;;;;;12.01;67.08;100639.31;2088690;28;46235;-64
2023/01/13 05:03:57;;;;;;;;;1.00;1.00;;;;;12.01;66.90;100641.97;2094729;28;46175;-64
2023/01/13 05:04:58;;;;;;;;;0.33;0.00;;;;;12.00;67.00;100634.91;2096985;28;46215;-64
2023/01/13 05:05:58;;;;;;;;;0.67;0.00;;;;;11.97;66.85;100637.66;2094781;28;46669;-64
2023/01/13 05:06:58;;;;;;;;;0.33;0.33;;;;;11.96;66.98;100641.22;2095469;28;45663;-63
2023/01/13 05:07:59;;;;;;;;;2.00;1.00;;;;;11.95;66.75;100631.50;2094075;28;46491;-64
2023/01/13 05:08:59;;;;;;;;;0.00;0.00;;;;;11.95;66.73;100635.97;2096467;28;47280;-63
2023/01/13 05:09:59;;;;;;;;;1.00;1.00;;;;;11.94;66.72;100636.84;2094834;28;46206;-64
2023/01/13 05:11:00;;;;;;;;;1.00;0.00;;;;;11.94;66.72;100650.16;2095954;28;46190;-63
2023/01/13 05:17:21;;;;;;;;;1.00;1.00;;;;;11.93;66.86;100649.28;2094023;28;46338;-63
2023/01/13 05:18:21;;;;;;;;;0.00;0.00;;;;;11.91;66.73;100655.56;2096334;28;46563;-61
2023/01/13 05:19:22;;;;;;;;;0.00;0.00;;;;;11.89;66.77;100658.25;2094447;28;46730;-63
2023/01/13 05:20:22;;;;;;;;;1.00;1.00;;;;;11.89;66.75;100668.91;2094736;28;46183;-63
2023/01/13 05:25:22;;;;;;;;;0.50;0.00;;;;;11.89;66.39;100676.88;2093012;28;46615;-63
2023/01/13 05:26:22;;;;;;;;;0.25;0.25;;;;;11.89;66.25;100668.91;2092643;28;45168;-62